createdAt,value
2022-08-09T00:00:19.934Z,957.1877441
2022-08-09T00:01:21.506Z,957.1309204
2022-08-09T00:02:22.103Z,957.164856
2022-08-09T00:04:05.644Z,957.2015381
2022-08-09T00:04:34.632Z,957.1817017
2022-08-09T00:06:17.860Z,957.1392822
2022-08-09T00:06:57.057Z,957.1746826
2022-08-09T00:08:01.318Z,957.1591187
2022-08-09T00:08:58.681Z,957.1651001
2022-08-09T00:09:59.485Z,957.1603394
2022-08-09T00:11:01.006Z,957.2156982
2022-08-09T00:12:04.482Z,957.1844482
2022-08-09T00:13:02.517Z,957.18573
2022-08-09T00:14:03.277Z,957.161499
2022-08-09T00:15:06.515Z,957.1939087
2022-08-09T00:16:04.839Z,957.1356201
2022-08-09T00:17:05.531Z,957.1445313
2022-08-09T00:18:11.521Z,957.1074219
2022-08-09T00:19:09.519Z,957.1429443
2022-08-09T00:20:08.569Z,957.1546631
2022-08-09T00:21:10.010Z,957.1218872
2022-08-09T00:22:11.349Z,957.1771851
2022-08-09T00:23:54.930Z,957.1322021
2022-08-09T00:24:12.557Z,957.1032104
2022-08-09T00:25:13.382Z,957.1036987
2022-08-09T00:26:14.584Z,957.1235962
2022-08-09T00:27:15.226Z,957.0848389
2022-08-09T00:28:16.109Z,957.1246948
2022-08-09T00:29:39.570Z,957.086853
2022-08-09T00:30:26.211Z,957.0718994
2022-08-09T00:31:56.827Z,957.1073608
2022-08-09T00:32:27.056Z,957.0834351
2022-08-09T00:33:32.647Z,957.0829468
2022-08-09T00:34:22.139Z,957.0853882
2022-08-09T00:35:22.927Z,957.1074219
2022-08-09T00:36:55.095Z,957.0424805
2022-08-09T00:37:55.923Z,957.0672607
2022-08-09T00:38:56.777Z,957.1157837
2022-08-09T00:40:12.230Z,957.0384521
2022-08-09T00:40:59.144Z,957.0639038
2022-08-09T00:44:09.817Z,957.060791
2022-08-09T00:44:10.392Z,957.0360718
2022-08-09T00:44:13.639Z,957.0285645
2022-08-09T00:45:03.729Z,957.0153198
2022-08-09T00:46:02.967Z,957.0598145
2022-08-09T00:47:05.570Z,957.0178223
2022-08-09T00:48:04.482Z,957.0239258
2022-08-09T00:49:05.333Z,956.9866943
2022-08-09T00:50:06.968Z,957.0427246
2022-08-09T00:51:11.819Z,957.0395508
2022-08-09T00:52:17.508Z,957.0115356
2022-08-09T00:53:10.223Z,957.0222168
2022-08-09T00:54:10.900Z,957.0445557
2022-08-09T00:55:16.748Z,957.0257568
2022-08-09T00:56:12.409Z,957.0240479
2022-08-09T00:57:14.051Z,957.0496826
2022-08-09T00:58:22.146Z,957.0282593
2022-08-09T00:59:15.687Z,957.055481
2022-08-09T01:00:22.049Z,957.0432739
2022-08-09T01:01:18.046Z,957.0456543
2022-08-09T01:02:18.724Z,957.0466919
2022-08-09T01:03:19.533Z,957.0673218
2022-08-09T01:04:20.389Z,957.0829468
2022-08-09T01:05:21.790Z,957.1226807
2022-08-09T01:06:21.810Z,957.1201782
2022-08-09T01:07:37.790Z,957.0930176
2022-08-09T01:08:26.927Z,957.133606
2022-08-09T01:09:55.580Z,957.1640625
2022-08-09T01:10:56.277Z,957.1589966
2022-08-09T01:11:57.892Z,957.1716919
2022-08-09T01:12:58.722Z,957.1575928
2022-08-09T01:14:01.683Z,957.1551514
2022-08-09T01:15:01.057Z,957.1445313
2022-08-09T01:16:01.196Z,957.2193604
2022-08-09T01:17:01.901Z,957.2210693
2022-08-09T01:18:02.809Z,957.1454468
2022-08-09T01:19:04.744Z,957.1975098
2022-08-09T01:20:04.562Z,957.1849976
2022-08-09T01:21:06.047Z,957.2313232
2022-08-09T01:22:06.762Z,957.2327271
2022-08-09T01:24:00.503Z,957.2354736
2022-08-09T01:24:08.358Z,957.2427368
2022-08-09T01:25:09.203Z,957.2345581
2022-08-09T01:26:09.891Z,957.2510986
2022-08-09T01:27:10.620Z,957.2789917
2022-08-09T01:28:11.641Z,957.2817383
2022-08-09T01:29:12.523Z,957.3061523
2022-08-09T01:30:28.644Z,957.2493896
2022-08-09T01:32:28.154Z,957.3186035
2022-08-09T01:32:31.113Z,957.321106
2022-08-09T01:33:16.583Z,957.2695313
2022-08-09T01:34:17.420Z,957.2907715
2022-08-09T01:35:37.723Z,957.2514648
2022-08-09T01:36:18.959Z,957.2793579
2022-08-09T01:37:42.827Z,957.2515869
2022-08-09T01:38:23.467Z,957.2047119
2022-08-09T01:39:23.212Z,957.2253418
2022-08-09T01:40:28.411Z,957.218811
2022-08-09T01:41:59.855Z,957.1901855
2022-08-09T01:42:56.252Z,957.2067261
2022-08-09T01:43:57.128Z,957.1893921
2022-08-09T01:44:57.929Z,957.1878052
2022-08-09T01:45:59.552Z,957.1879883
2022-08-09T01:47:00.219Z,957.1708374
2022-08-09T01:48:01.015Z,957.1766968
2022-08-09T01:49:10.368Z,957.2193604
2022-08-09T01:50:02.625Z,957.1660767
2022-08-09T01:51:03.398Z,957.1766357
2022-08-09T01:52:07.048Z,957.1404419
2022-08-09T01:53:19.141Z,957.199707
2022-08-09T01:54:06.583Z,957.2533569
2022-08-09T01:55:07.390Z,957.2090454
2022-08-09T01:56:08.149Z,957.2576294
2022-08-09T01:57:08.887Z,957.2776489
2022-08-09T01:58:09.672Z,957.2733765
2022-08-09T01:59:10.562Z,957.2915649
2022-08-09T02:00:34.733Z,957.295166
2022-08-09T02:01:18.090Z,957.2974243
2022-08-09T02:02:13.962Z,957.2826538
2022-08-09T02:03:14.752Z,957.2459106
2022-08-09T02:04:15.559Z,957.2770386
2022-08-09T02:05:16.333Z,957.2449951
2022-08-09T02:06:17.042Z,957.2550049
2022-08-09T02:08:38.807Z,957.256897
2022-08-09T02:08:41.401Z,957.2756348
2022-08-09T02:09:20.206Z,957.288208
2022-08-09T02:10:29.710Z,957.3171997
2022-08-09T02:11:22.590Z,957.3261719
2022-08-09T02:12:54.268Z,957.289978
2022-08-09T02:13:55.224Z,957.3354492
2022-08-09T02:14:55.914Z,957.3167114
2022-08-09T02:15:56.714Z,957.3826294
2022-08-09T02:16:59.683Z,957.3720093
2022-08-09T02:18:09.616Z,957.3760986
2022-08-09T02:18:59.223Z,957.3928223
2022-08-09T02:20:01.211Z,957.4085693
2022-08-09T02:21:01.304Z,957.3847046
2022-08-09T02:22:02.991Z,957.3956299
2022-08-09T02:23:03.777Z,957.402832
2022-08-09T02:24:04.952Z,957.380127
2022-08-09T02:25:06.783Z,957.3800659
2022-08-09T02:26:06.407Z,957.3915405
2022-08-09T02:27:07.261Z,957.4073486
2022-08-09T02:28:09.608Z,957.4246216
2022-08-09T02:29:08.870Z,957.4106445
2022-08-09T02:30:09.603Z,957.4393921
2022-08-09T02:31:10.298Z,957.461731
2022-08-09T02:32:11.970Z,957.4224854
2022-08-09T02:33:14.255Z,957.4503174
2022-08-09T02:34:40.961Z,957.4536133
2022-08-09T02:35:17.270Z,957.4307861
2022-08-09T02:36:14.989Z,957.416748
2022-08-09T02:37:16.673Z,957.4174805
2022-08-09T02:38:22.133Z,957.3771973
2022-08-09T02:39:20.023Z,957.4182739
2022-08-09T02:40:26.958Z,957.3740845
2022-08-09T02:41:20.573Z,957.4241943
2022-08-09T02:42:24.902Z,957.4391479
2022-08-09T02:43:23.090Z,957.4400635
2022-08-09T02:44:54.309Z,957.4810791
2022-08-09T02:45:55.064Z,957.4023438
2022-08-09T02:46:56.479Z,957.4202271
2022-08-09T02:47:59.546Z,957.4575195
2022-08-09T02:48:58.240Z,957.4467163
2022-08-09T02:50:01.767Z,957.4475098
2022-08-09T02:51:02.402Z,957.4666138
2022-08-09T02:52:01.375Z,957.4483032
2022-08-09T02:53:03.743Z,957.4450073
2022-08-09T02:54:03.903Z,957.4612427
2022-08-09T02:55:19.926Z,957.5044556
2022-08-09T02:56:05.387Z,957.4631348
2022-08-09T02:57:13.912Z,957.4612427
2022-08-09T02:58:32.511Z,957.4727173
2022-08-09T02:59:07.970Z,957.4810791
2022-08-09T03:00:21.035Z,957.4974976
2022-08-09T03:01:11.066Z,957.4539185
2022-08-09T03:02:12.128Z,957.4628296
2022-08-09T03:03:11.957Z,957.4639282
2022-08-09T03:04:19.369Z,957.470459
2022-08-09T03:05:16.694Z,957.4349976
2022-08-09T03:06:15.154Z,957.3937378
2022-08-09T03:07:15.843Z,957.392334
2022-08-09T03:08:16.704Z,957.3833008
2022-08-09T03:09:17.748Z,957.409668
2022-08-09T03:10:18.237Z,957.3956909
2022-08-09T03:11:29.672Z,957.4073486
2022-08-09T03:12:20.515Z,957.4006348
2022-08-09T03:13:21.393Z,957.375061
2022-08-09T03:14:28.347Z,957.3720093
2022-08-09T03:16:06.234Z,957.3845215
2022-08-09T03:16:54.546Z,957.3571777
2022-08-09T03:17:58.745Z,957.3652954
2022-08-09T03:18:56.307Z,957.3604736
2022-08-09T03:20:00.366Z,957.3135986
2022-08-09T03:20:57.826Z,957.3129883
2022-08-09T03:21:59.636Z,957.3013306
2022-08-09T03:23:14.918Z,957.305603
2022-08-09T03:24:04.428Z,957.2982178
2022-08-09T03:25:20.935Z,957.2932739
2022-08-09T03:26:04.817Z,957.2562256
2022-08-09T03:27:03.590Z,957.3040771
2022-08-09T03:28:04.437Z,957.2807617
2022-08-09T03:29:09.624Z,957.2791138
2022-08-09T03:30:07.610Z,957.293457
2022-08-09T03:31:21.121Z,957.2923584
2022-08-09T03:32:08.426Z,957.3214111
2022-08-09T03:33:17.732Z,957.3057861
2022-08-09T03:34:09.862Z,957.321167
2022-08-09T03:35:15.074Z,957.2943726
2022-08-09T03:36:16.551Z,957.2991333
2022-08-09T03:37:54.713Z,957.3081055
2022-08-09T03:38:16.104Z,957.2885742
2022-08-09T03:39:15.058Z,957.2868652
2022-08-09T03:40:17.989Z,957.3024902
2022-08-09T03:41:18.428Z,957.3181152
2022-08-09T03:42:19.302Z,957.3378906
2022-08-09T03:43:18.983Z,957.3428955
2022-08-09T03:44:19.862Z,957.3445435
2022-08-09T03:46:04.228Z,957.3633423
2022-08-09T03:46:27.396Z,957.3898315
2022-08-09T03:47:52.775Z,957.3954468
2022-08-09T03:48:53.753Z,957.3724976
2022-08-09T03:49:58.922Z,957.375
2022-08-09T03:50:56.843Z,957.3840332
2022-08-09T03:52:00.153Z,957.3825073
2022-08-09T03:52:58.430Z,957.3939209
2022-08-09T03:53:59.746Z,957.3908081
2022-08-09T03:55:01.133Z,957.3843994
2022-08-09T03:56:01.845Z,957.3734131
2022-08-09T03:57:04.430Z,957.3742676
2022-08-09T03:58:09.969Z,957.378418
2022-08-09T03:59:04.030Z,957.350769
2022-08-09T04:00:05.010Z,957.4000244
2022-08-09T04:01:05.815Z,957.3950806
2022-08-09T04:02:07.105Z,957.4129639
2022-08-09T04:03:07.938Z,957.4026489
2022-08-09T04:04:14.471Z,957.3862305
2022-08-09T04:05:18.220Z,957.446228
2022-08-09T04:06:10.512Z,957.4567261
2022-08-09T04:07:11.589Z,957.4223633
2022-08-09T04:08:13.111Z,957.4607544
2022-08-09T04:09:41.966Z,957.477356
2022-08-09T04:10:14.836Z,957.4494019
2022-08-09T04:11:15.653Z,957.4238281
2022-08-09T04:12:30.403Z,957.4658813
2022-08-09T04:13:18.505Z,957.460083
2022-08-09T04:14:53.117Z,957.4379883
2022-08-09T04:15:52.224Z,957.430481
2022-08-09T04:16:21.500Z,957.4545288
2022-08-09T04:17:21.173Z,957.4543457
2022-08-09T04:18:52.423Z,957.4898682
2022-08-09T04:19:56.161Z,957.4313965
2022-08-09T04:20:54.083Z,957.4767456
2022-08-09T04:21:54.816Z,957.4643555
2022-08-09T04:22:56.466Z,957.449707
2022-08-09T04:23:57.744Z,957.4716187
2022-08-09T04:24:57.931Z,957.4782715
2022-08-09T04:25:58.716Z,957.4595337
2022-08-09T04:26:59.392Z,957.5136108
2022-08-09T04:28:02.649Z,957.4732056
2022-08-09T04:29:05.225Z,957.4923706
2022-08-09T04:30:02.126Z,957.4954834
2022-08-09T04:31:05.758Z,957.512085
2022-08-09T04:32:03.379Z,957.5250854
2022-08-09T04:33:04.987Z,957.5459595
2022-08-09T04:34:05.698Z,957.5236816
2022-08-09T04:35:08.587Z,957.5343628
2022-08-09T04:36:07.415Z,957.5177612
2022-08-09T04:37:07.967Z,957.5078735
2022-08-09T04:38:09.569Z,957.5112305
2022-08-09T04:39:10.426Z,957.4882813
2022-08-09T04:40:11.628Z,957.5103149
2022-08-09T04:41:12.495Z,957.4888916
2022-08-09T04:42:15.857Z,957.4636841
2022-08-09T04:43:15.181Z,957.4676514
2022-08-09T04:44:15.642Z,957.4841919
2022-08-09T04:45:16.532Z,957.4974365
2022-08-09T04:46:19.348Z,957.5030518
2022-08-09T04:47:18.806Z,957.479248
2022-08-09T04:48:19.601Z,957.4753418
2022-08-09T04:49:22.208Z,957.5095215
2022-08-09T04:50:21.570Z,957.5335083
2022-08-09T04:51:53.556Z,957.5548706
2022-08-09T04:52:54.932Z,957.5648193
2022-08-09T04:53:58.619Z,957.5615845
2022-08-09T04:54:56.521Z,957.5557251
2022-08-09T04:55:59.813Z,957.607666
2022-08-09T04:56:58.205Z,957.5983887
2022-08-09T04:58:09.077Z,957.5910645
2022-08-09T04:58:59.734Z,957.5884399
2022-08-09T05:00:00.564Z,957.5978394
2022-08-09T05:01:01.415Z,957.6174927
2022-08-09T05:02:03.016Z,957.6273193
2022-08-09T05:03:30.124Z,957.5878906
2022-08-09T05:04:04.784Z,957.6140137
2022-08-09T05:05:09.941Z,957.6188965
2022-08-09T05:06:07.455Z,957.6140137
2022-08-09T05:07:08.183Z,957.6273193
2022-08-09T05:08:09.007Z,957.6032715
2022-08-09T05:09:09.724Z,957.6289063
2022-08-09T05:10:10.516Z,957.6412354
2022-08-09T05:11:11.785Z,957.6602173
2022-08-09T05:12:12.747Z,957.6356201
2022-08-09T05:13:14.286Z,957.6691895
2022-08-09T05:14:14.817Z,957.6799316
2022-08-09T05:15:24.682Z,957.6724854
2022-08-09T05:16:16.466Z,957.6922607
2022-08-09T05:18:37.907Z,957.7042847
2022-08-09T05:18:50.761Z,957.6963501
2022-08-09T05:19:23.544Z,957.7192383
2022-08-09T05:20:20.639Z,957.7176514
2022-08-09T05:21:55.227Z,957.7355957
2022-08-09T05:23:54.846Z,957.7316895
2022-08-09T05:24:00.064Z,957.7371826
2022-08-09T05:25:00.862Z,957.7487793
2022-08-09T05:25:56.798Z,957.7833862
2022-08-09T05:26:56.916Z,957.7907715
2022-08-09T05:27:57.739Z,957.8030396
2022-08-09T05:28:58.566Z,957.788269
2022-08-09T05:29:59.436Z,957.7991333
2022-08-09T05:31:00.323Z,957.8162231
2022-08-09T05:32:02.094Z,957.8259888
2022-08-09T05:33:03.640Z,957.8161621
2022-08-09T05:34:04.438Z,957.8407593
2022-08-09T05:35:05.141Z,957.8415527
2022-08-09T05:36:06.008Z,957.8967896
2022-08-09T05:37:11.309Z,957.8950806
2022-08-09T05:38:07.768Z,957.880127
2022-08-09T05:39:09.668Z,957.897522
2022-08-09T05:40:10.398Z,957.9123535
2022-08-09T05:41:12.859Z,957.8869019
2022-08-09T05:42:17.826Z,957.8926392
2022-08-09T05:43:14.088Z,957.8760376
2022-08-09T05:44:14.870Z,957.897522
2022-08-09T05:45:15.698Z,957.9040527
2022-08-09T05:46:16.561Z,957.9206543
2022-08-09T05:47:17.432Z,957.8915405
2022-08-09T05:48:18.369Z,957.9081421
2022-08-09T05:50:24.378Z,957.9359131
2022-08-09T05:50:34.931Z,957.8931274
2022-08-09T05:51:51.498Z,957.920166
2022-08-09T05:52:53.987Z,957.9243774
2022-08-09T05:53:57.883Z,957.9331055
2022-08-09T05:54:55.339Z,957.9331055
2022-08-09T05:55:55.510Z,957.9085083
2022-08-09T05:56:56.795Z,957.9232788
2022-08-09T05:57:58.408Z,957.9057617
2022-08-09T05:58:58.810Z,957.9389038
2022-08-09T05:59:59.441Z,957.9241333
2022-08-09T06:01:00.180Z,957.9453125
2022-08-09T06:02:01.049Z,957.9404907
2022-08-09T06:03:02.746Z,957.9642944
2022-08-09T06:04:05.442Z,957.9501343
2022-08-09T06:05:04.154Z,957.9820557
2022-08-09T06:06:06.516Z,957.9573364
2022-08-09T06:07:05.679Z,957.9656372
2022-08-09T06:08:07.876Z,957.9709473
2022-08-09T06:09:23.052Z,957.979126
2022-08-09T06:10:08.904Z,958.0004883
2022-08-09T06:11:17.666Z,958.0198975
2022-08-09T06:12:10.513Z,957.9902954
2022-08-09T06:13:18.689Z,957.9993896
2022-08-09T06:14:12.964Z,958.0131226
2022-08-09T06:15:13.678Z,958.0254517
2022-08-09T06:16:14.431Z,958.0335083
2022-08-09T06:17:15.288Z,958.0378418
2022-08-09T06:18:16.793Z,958.0498657
2022-08-09T06:19:17.013Z,958.0443726
2022-08-09T06:20:18.253Z,958.0770874
2022-08-09T06:21:18.444Z,958.0942383
2022-08-09T06:22:28.725Z,958.0999756
2022-08-09T06:23:21.218Z,958.1303101
2022-08-09T06:24:53.134Z,958.0560303
2022-08-09T06:25:55.404Z,958.1031494
2022-08-09T06:26:54.636Z,958.142334
2022-08-09T06:27:55.487Z,958.1400146
2022-08-09T06:29:00.260Z,958.1455688
2022-08-09T06:30:04.265Z,958.1543579
2022-08-09T06:30:57.833Z,958.1074829
2022-08-09T06:32:08.794Z,958.1420898
2022-08-09T06:33:30.116Z,958.1345825
2022-08-09T06:34:01.064Z,958.1486206
2022-08-09T06:35:01.912Z,958.1328125
2022-08-09T06:36:02.585Z,958.1130371
2022-08-09T06:37:03.405Z,958.1362305
2022-08-09T06:38:05.889Z,958.1443481
2022-08-09T06:39:09.230Z,958.180481
2022-08-09T06:40:21.946Z,958.1525269
2022-08-09T06:41:18.216Z,958.1795044
2022-08-09T06:42:11.367Z,958.1564331
2022-08-09T06:43:10.522Z,958.185791
2022-08-09T06:44:10.480Z,958.1782837
2022-08-09T06:46:05.548Z,958.1973267
2022-08-09T06:46:13.147Z,958.2004395
2022-08-09T06:47:13.110Z,958.229248
2022-08-09T06:48:16.444Z,958.2234497
2022-08-09T06:49:22.589Z,958.213623
2022-08-09T06:50:16.704Z,958.2338867
2022-08-09T06:51:16.388Z,958.2282104
2022-08-09T06:52:17.128Z,958.241394
2022-08-09T06:53:18.692Z,958.2282715
2022-08-09T06:54:20.389Z,958.2357788
2022-08-09T06:55:50.863Z,958.3032837
2022-08-09T06:56:51.532Z,958.2718506
2022-08-09T06:58:02.585Z,958.2948608
2022-08-09T07:00:51.798Z,958.2946167
2022-08-09T07:00:51.800Z,958.2837524
2022-08-09T07:00:58.690Z,958.2902832
2022-08-09T07:01:58.002Z,958.2522583
2022-08-09T07:02:57.776Z,958.2357178
2022-08-09T07:04:03.731Z,958.2179565
2022-08-09T07:05:00.495Z,958.2089233
2022-08-09T07:06:03.833Z,958.2267456
2022-08-09T07:07:05.031Z,958.2397461
2022-08-09T07:08:02.796Z,958.2438965
2022-08-09T07:09:04.163Z,958.2199707
2022-08-09T07:10:18.003Z,958.2167358
2022-08-09T07:11:06.520Z,958.2346802
2022-08-09T07:12:06.427Z,958.2179565
2022-08-09T07:13:28.285Z,958.2244263
2022-08-09T07:14:09.082Z,958.2400513
2022-08-09T07:15:54.014Z,958.253418
2022-08-09T07:16:42.429Z,958.2565918
2022-08-09T07:17:11.700Z,958.2615356
2022-08-09T07:18:14.294Z,958.2802124
2022-08-09T07:19:15.720Z,958.2845459
2022-08-09T07:20:14.215Z,958.2893677
2022-08-09T07:21:14.949Z,958.2874756
2022-08-09T07:22:15.843Z,958.2663574
2022-08-09T07:23:18.649Z,958.279541
2022-08-09T07:24:17.977Z,958.2893677
2022-08-09T07:25:18.928Z,958.3082886
2022-08-09T07:26:20.632Z,958.3543701
2022-08-09T07:27:53.498Z,958.3199463
2022-08-09T07:29:09.368Z,958.342041
2022-08-09T07:29:53.431Z,958.3453369
2022-08-09T07:30:54.164Z,958.3167114
2022-08-09T07:31:54.877Z,958.3312988
2022-08-09T07:32:55.670Z,958.3418579
2022-08-09T07:33:57.069Z,958.3517456
2022-08-09T07:34:57.917Z,958.3649292
2022-08-09T07:35:58.717Z,958.3342285
2022-08-09T07:37:02.620Z,958.3847046
2022-08-09T07:38:00.755Z,958.3809204
2022-08-09T07:39:02.405Z,958.4204712
2022-08-09T07:40:03.139Z,958.407959
2022-08-09T07:41:11.522Z,958.4625244
2022-08-09T07:42:05.041Z,958.4854736
2022-08-09T07:43:06.988Z,958.4425049
2022-08-09T07:44:07.058Z,958.4463501
2022-08-09T07:45:23.125Z,958.4415894
2022-08-09T07:46:08.718Z,958.4265747
2022-08-09T07:47:09.916Z,958.4298706
2022-08-09T07:48:22.505Z,958.4428101
2022-08-09T07:49:15.337Z,958.4146118
2022-08-09T07:50:12.221Z,958.3793945
2022-08-09T07:52:06.122Z,958.3635864
2022-08-09T07:52:16.643Z,958.3497925
2022-08-09T07:53:14.667Z,958.3726807
2022-08-09T07:54:19.109Z,958.4039307
2022-08-09T07:55:16.942Z,958.3615112
2022-08-09T07:56:26.861Z,958.3632202
2022-08-09T07:57:18.472Z,958.3522949
2022-08-09T07:58:21.590Z,958.3206177
2022-08-09T08:00:03.097Z,958.3674927
2022-08-09T08:00:58.869Z,958.3435669
2022-08-09T08:01:53.117Z,958.3157959
2022-08-09T08:02:53.430Z,958.3428345
2022-08-09T08:03:54.618Z,958.3206177
2022-08-09T08:04:55.313Z,958.3204956
2022-08-09T08:05:58.190Z,958.3007202
2022-08-09T08:07:00.202Z,958.3162231
2022-08-09T08:08:44.450Z,958.2963867
2022-08-09T08:09:03.625Z,958.2625122
2022-08-09T08:10:08.326Z,958.2608643
2022-08-09T08:12:08.631Z,958.2723999
2022-08-09T08:12:11.615Z,958.2874756
2022-08-09T08:13:03.763Z,958.2651367
2022-08-09T08:14:04.836Z,958.2510376
2022-08-09T08:15:04.222Z,958.2334595
2022-08-09T08:16:05.452Z,958.2217407
2022-08-09T08:17:09.109Z,958.2132568
2022-08-09T08:18:06.952Z,958.192627
2022-08-09T08:19:07.637Z,958.1801758
2022-08-09T08:20:13.277Z,958.234436
2022-08-09T08:21:09.105Z,958.211853
2022-08-09T08:22:09.820Z,958.1945801
2022-08-09T08:23:16.919Z,958.2150269
2022-08-09T08:24:16.537Z,958.1951294
2022-08-09T08:25:13.809Z,958.1898193
2022-08-09T08:26:13.467Z,958.1593628
2022-08-09T08:27:17.167Z,958.1473999
2022-08-09T08:28:18.421Z,958.1637573
2022-08-09T08:29:20.112Z,958.1603394
2022-08-09T08:30:17.341Z,958.1798706
2022-08-09T08:31:18.065Z,958.1434326
2022-08-09T08:32:28.699Z,958.2015381
2022-08-09T08:33:53.906Z,958.2271729
2022-08-09T08:34:52.139Z,958.2459106
2022-08-09T08:35:58.630Z,958.2407227
2022-08-09T08:36:53.309Z,958.2737427
2022-08-09T08:37:59.642Z,958.2192383
2022-08-09T08:38:54.860Z,958.2346802
2022-08-09T08:39:56.542Z,958.2470093
2022-08-09T08:40:57.179Z,958.2080688
2022-08-09T08:41:58.908Z,958.2376709
2022-08-09T08:42:58.987Z,958.256897
2022-08-09T08:44:02.676Z,958.2287598
2022-08-09T08:45:00.867Z,958.2335815
2022-08-09T08:46:09.916Z,958.2250977
2022-08-09T08:47:04.727Z,958.1911621
2022-08-09T08:48:02.961Z,958.2159424
2022-08-09T08:49:03.709Z,958.1743774
2022-08-09T08:50:05.127Z,958.2006836
2022-08-09T08:51:05.812Z,958.1716919
2022-08-09T08:52:10.244Z,958.2185059
2022-08-09T08:53:08.056Z,958.1920166
2022-08-09T08:54:10.107Z,958.2058105
2022-08-09T08:55:09.857Z,958.2139893
2022-08-09T08:56:16.910Z,958.1831055
2022-08-09T08:57:11.858Z,958.1796875
2022-08-09T08:58:12.320Z,958.2017212
2022-08-09T08:59:19.400Z,958.1720581
2022-08-09T09:00:27.182Z,958.1479492
2022-08-09T09:01:20.728Z,958.1032715
2022-08-09T09:02:15.326Z,958.1599731
2022-08-09T09:03:20.739Z,958.1665649
2022-08-09T09:04:17.662Z,958.1598511
2022-08-09T09:05:18.829Z,958.1295166
2022-08-09T09:06:49.936Z,958.1854858
2022-08-09T09:07:50.626Z,958.1589355
2022-08-09T09:08:52.557Z,958.1304932
2022-08-09T09:10:02.027Z,958.1607666
2022-08-09T09:10:53.318Z,958.1606445
2022-08-09T09:11:54.029Z,958.161499
2022-08-09T09:12:54.720Z,958.1395264
2022-08-09T09:13:58.266Z,958.1906128
2022-08-09T09:14:57.026Z,958.2299805
2022-08-09T09:15:57.710Z,958.222168
2022-08-09T09:16:58.473Z,958.1953125
2022-08-09T09:17:59.160Z,958.2059326
2022-08-09T09:19:22.555Z,958.2121582
2022-08-09T09:20:01.139Z,958.2022095
2022-08-09T09:21:01.324Z,958.2416992
2022-08-09T09:22:04.220Z,958.2067871
2022-08-09T09:23:02.763Z,958.1716919
2022-08-09T09:24:04.367Z,958.2121582
2022-08-09T09:26:04.330Z,958.1690063
2022-08-09T09:26:12.406Z,958.1851807
2022-08-09T09:27:06.426Z,958.2086182
2022-08-09T09:28:08.073Z,958.196106
2022-08-09T09:29:11.143Z,958.1875
2022-08-09T09:30:15.790Z,958.1913452
2022-08-09T09:31:17.129Z,958.1638794
2022-08-09T09:32:15.574Z,958.1627197
2022-08-09T09:33:15.472Z,958.1827393
2022-08-09T09:34:14.232Z,958.1826782
2022-08-09T09:35:16.016Z,958.1507568
2022-08-09T09:36:20.914Z,958.2498169
2022-08-09T09:37:14.754Z,958.2393799
2022-08-09T09:38:27.572Z,958.1796875
2022-08-09T09:39:16.267Z,958.130127
2022-08-09T09:40:17.955Z,958.1848145
2022-08-09T09:41:51.056Z,958.132019
2022-08-09T09:42:49.720Z,958.1507568
2022-08-09T09:44:12.793Z,958.1655273
2022-08-09T09:44:51.988Z,958.1711426
2022-08-09T09:46:38.970Z,958.1453247
2022-08-09T09:46:54.003Z,958.1451416
2022-08-09T09:47:56.417Z,958.1865845
2022-08-09T09:48:55.471Z,958.1706543
2022-08-09T09:50:14.900Z,958.2019043
2022-08-09T09:50:56.956Z,958.1594238
2022-08-09T09:51:57.673Z,958.2324829
2022-08-09T09:52:58.604Z,958.2017212
2022-08-09T09:54:01.329Z,958.2023315
2022-08-09T09:55:00.629Z,958.2029419
2022-08-09T09:56:05.473Z,958.1798706
2022-08-09T09:58:01.050Z,958.2296143
2022-08-09T09:58:17.119Z,958.2368774
2022-08-09T09:59:03.535Z,958.2396851
2022-08-09T10:00:05.025Z,958.2114258
2022-08-09T10:01:05.750Z,958.2070313
2022-08-09T10:02:06.415Z,958.2523193
2022-08-09T10:03:09.095Z,958.1670532
2022-08-09T10:04:09.467Z,958.1568604
2022-08-09T10:05:09.487Z,958.1369019
2022-08-09T10:06:10.234Z,958.1378174
2022-08-09T10:07:11.733Z,958.1696777
2022-08-09T10:08:27.755Z,958.0957642
2022-08-09T10:09:22.574Z,958.1583862
2022-08-09T10:10:13.837Z,958.0747681
2022-08-09T10:11:53.839Z,958.1612549
2022-08-09T10:12:28.445Z,958.1395264
2022-08-09T10:13:24.795Z,958.144043
2022-08-09T10:14:17.448Z,958.1906128
2022-08-09T10:16:08.859Z,958.1795044
2022-08-09T10:16:58.496Z,958.2229614
2022-08-09T10:17:56.455Z,958.1566162
2022-08-09T10:18:54.220Z,958.1745605
2022-08-09T10:19:56.845Z,958.1743774
2022-08-09T10:20:53.531Z,958.1707764
2022-08-09T10:21:54.233Z,958.2340698
2022-08-09T10:23:00.456Z,958.1826782
2022-08-09T10:23:55.542Z,958.1102905
2022-08-09T10:24:56.966Z,958.1473389
2022-08-09T10:26:06.266Z,958.1528931
2022-08-09T10:26:59.184Z,958.2512207
2022-08-09T10:27:59.856Z,958.1981201
2022-08-09T10:29:36.111Z,958.1936035
2022-08-09T10:30:49.467Z,958.244751
2022-08-09T10:33:04.339Z,958.24646
2022-08-09T10:34:11.492Z,958.1970825
2022-08-09T10:35:06.486Z,958.2129517
2022-08-09T10:36:11.481Z,958.1279907
2022-08-09T10:37:09.857Z,958.1777954
2022-08-09T10:38:41.731Z,958.203064
2022-08-09T10:39:13.943Z,958.1748657
2022-08-09T10:40:12.203Z,958.173645
2022-08-09T10:41:11.794Z,958.116394
2022-08-09T10:42:12.563Z,958.1584473
2022-08-09T10:43:13.211Z,958.1621094
2022-08-09T10:44:13.893Z,958.125
2022-08-09T10:45:15.936Z,958.0979614
2022-08-09T10:46:20.080Z,958.0968628
2022-08-09T10:48:12.541Z,958.0848999
2022-08-09T10:48:48.224Z,958.0665894
2022-08-09T10:49:51.321Z,958.0713501
2022-08-09T10:50:50.502Z,958.0376587
2022-08-09T10:51:52.791Z,958.0581055
2022-08-09T10:52:52.063Z,958.0673218
2022-08-09T10:53:54.780Z,958.0968628
2022-08-09T10:54:54.184Z,958.1287231
2022-08-09T10:56:00.051Z,958.1166382
2022-08-09T10:56:55.656Z,958.1656494
2022-08-09T10:58:00.147Z,958.1463013
2022-08-09T10:58:57.379Z,958.0730591
2022-08-09T10:59:58.568Z,958.076416
2022-08-09T11:03:02.630Z,958.0787354
2022-08-09T11:03:11.547Z,958.0999146
2022-08-09T11:03:17.996Z,958.0847168
2022-08-09T11:04:03.600Z,958.0726318
2022-08-09T11:05:04.358Z,958.0349121
2022-08-09T11:06:04.422Z,958.053772
2022-08-09T11:07:05.015Z,958.1087646
2022-08-09T11:08:05.884Z,958.0964355
2022-08-09T11:09:15.433Z,958.0179443
2022-08-09T11:10:07.568Z,957.9767456
2022-08-09T11:11:08.825Z,957.9715576
2022-08-09T11:12:08.910Z,958.0125122